createdAt,value
2019-05-25T00:00:30.707Z,15.62
2019-05-25T00:04:35.554Z,15.78
2019-05-25T00:08:40.445Z,15.89
2019-05-25T00:12:45.348Z,15.97
2019-05-25T00:16:51.209Z,16.03
2019-05-25T00:20:56.103Z,15.99
2019-05-25T00:25:01.000Z,15.92
2019-05-25T00:29:05.892Z,15.65
2019-05-25T00:33:10.788Z,15.50
2019-05-25T00:37:15.692Z,15.43
2019-05-25T00:41:20.662Z,15.36
2019-05-25T00:45:25.556Z,15.29
2019-05-25T00:49:30.456Z,15.26
2019-05-25T00:53:35.356Z,15.23
2019-05-25T00:57:40.254Z,15.22
2019-05-25T01:01:45.150Z,15.20
2019-05-25T01:05:50.046Z,15.24
2019-05-25T01:09:54.939Z,15.24
2019-05-25T01:13:59.836Z,15.27
2019-05-25T01:18:04.872Z,15.20
2019-05-25T01:22:09.776Z,15.10
2019-05-25T01:26:14.670Z,15.06
2019-05-25T01:30:19.946Z,15.09
2019-05-25T01:34:24.829Z,15.10
2019-05-25T01:38:29.724Z,15.09
2019-05-25T01:42:34.795Z,15.03
2019-05-25T01:46:40.762Z,14.99
2019-05-25T01:50:45.669Z,14.94
2019-05-25T01:54:59.435Z,14.87
2019-05-25T01:58:57.156Z,14.73
2019-05-25T02:03:02.093Z,14.50
2019-05-25T02:07:06.971Z,14.52
2019-05-25T02:11:11.865Z,14.48
2019-05-25T02:15:16.827Z,14.46
2019-05-25T02:19:21.798Z,14.33
2019-05-25T02:23:26.694Z,14.32
2019-05-25T02:27:31.600Z,14.32
2019-05-25T02:31:36.476Z,14.35
2019-05-25T02:35:41.387Z,14.58
2019-05-25T02:39:46.280Z,14.58
2019-05-25T02:43:51.175Z,14.69
2019-05-25T02:47:56.073Z,14.69
2019-05-25T02:52:00.965Z,14.68
2019-05-25T02:56:05.934Z,14.68
2019-05-25T03:00:11.844Z,14.75
2019-05-25T03:04:17.480Z,14.70
2019-05-25T03:08:22.387Z,14.69
2019-05-25T03:12:27.618Z,14.52
2019-05-25T03:16:32.500Z,14.63
2019-05-25T03:20:37.403Z,14.66
2019-05-25T03:24:42.299Z,14.74
2019-05-25T03:28:47.197Z,14.81
2019-05-25T03:32:52.112Z,14.83
2019-05-25T03:36:56.985Z,14.85
2019-05-25T03:41:01.884Z,14.90
2019-05-25T03:45:07.866Z,14.92
2019-05-25T03:49:13.691Z,14.86
2019-05-25T03:53:18.594Z,14.85
2019-05-25T03:57:23.481Z,14.82
2019-05-25T04:01:28.449Z,14.76
2019-05-25T04:05:33.340Z,14.64
2019-05-25T04:09:38.239Z,14.43
2019-05-25T04:13:43.130Z,14.30
2019-05-25T04:17:48.021Z,14.23
2019-05-25T04:21:52.917Z,14.47
2019-05-25T04:25:57.813Z,14.78
2019-05-25T04:30:02.796Z,15.04
2019-05-25T04:34:07.757Z,15.12
2019-05-25T04:38:12.642Z,15.11
2019-05-25T04:42:17.544Z,15.34
2019-05-25T04:46:22.434Z,15.63
2019-05-25T04:50:27.339Z,15.67
2019-05-25T04:54:32.236Z,15.76
2019-05-25T04:58:37.149Z,15.93
2019-05-25T05:02:42.046Z,16.26
2019-05-25T05:06:46.980Z,16.36
2019-05-25T05:10:51.854Z,16.36
2019-05-25T05:14:56.760Z,16.15
2019-05-25T05:19:01.654Z,16.06
2019-05-25T05:23:06.554Z,16.27
2019-05-25T05:27:11.457Z,16.72
2019-05-25T05:31:23.580Z,17.86
2019-05-25T05:35:22.941Z,17.87
2019-05-25T05:39:28.379Z,18.95
2019-05-25T05:43:34.717Z,18.35
2019-05-25T05:47:41.270Z,18.10
2019-05-25T05:51:50.508Z,18.67
2019-05-25T05:55:55.407Z,18.46
2019-05-25T06:00:00.297Z,19.59
2019-05-25T06:04:05.261Z,20.25
2019-05-25T06:08:10.161Z,19.78
2019-05-25T06:12:15.055Z,19.38
2019-05-25T06:16:19.948Z,20.37
2019-05-25T06:20:24.845Z,21.43
2019-05-25T06:24:29.750Z,23.30
2019-05-25T06:28:34.655Z,23.50
2019-05-25T06:32:39.563Z,23.75
2019-05-25T06:36:44.460Z,26.47
2019-05-25T06:40:49.356Z,28.05
2019-05-25T06:44:54.257Z,29.16
2019-05-25T06:48:59.158Z,29.25
2019-05-25T06:53:04.055Z,29.65
2019-05-25T06:57:08.934Z,30.36
2019-05-25T07:01:13.857Z,30.74
2019-05-25T07:05:18.756Z,29.99
2019-05-25T07:09:23.659Z,29.82
2019-05-25T07:13:28.799Z,26.05
2019-05-25T07:17:33.727Z,23.80
2019-05-25T07:21:38.634Z,22.66
2019-05-25T07:25:43.533Z,22.10
2019-05-25T07:29:48.438Z,21.63
2019-05-25T07:33:53.327Z,21.52
2019-05-25T07:37:58.224Z,21.33
2019-05-25T07:42:03.294Z,21.02
2019-05-25T07:46:08.166Z,20.90
2019-05-25T07:50:13.908Z,20.45
2019-05-25T07:54:18.812Z,20.07
2019-05-25T07:58:23.705Z,19.66
2019-05-25T08:02:28.610Z,19.45
2019-05-25T08:06:33.521Z,19.43
2019-05-25T08:10:38.414Z,19.70
2019-05-25T08:14:45.150Z,19.66
2019-05-25T08:18:50.084Z,19.58
2019-05-25T08:22:54.982Z,19.61
2019-05-25T08:26:59.949Z,19.55
2019-05-25T08:31:04.923Z,19.35
2019-05-25T08:35:10.461Z,19.31
2019-05-25T08:39:15.335Z,19.20
2019-05-25T08:43:20.241Z,19.10
2019-05-25T08:47:25.143Z,19.06
2019-05-25T08:51:30.038Z,19.25
2019-05-25T08:55:35.512Z,19.54
2019-05-25T08:59:40.407Z,19.59
2019-05-25T09:03:45.295Z,19.71
2019-05-25T09:07:50.211Z,19.89
2019-05-25T09:11:55.113Z,20.31
2019-05-25T09:16:00.014Z,20.48
2019-05-25T09:20:08.481Z,20.39
2019-05-25T09:24:13.385Z,20.52
2019-05-25T09:28:18.315Z,20.85
2019-05-25T09:32:24.266Z,21.20
2019-05-25T09:36:30.144Z,21.63
2019-05-25T09:40:35.023Z,21.94
2019-05-25T09:44:39.924Z,22.04
2019-05-25T09:48:44.826Z,22.01
2019-05-25T09:52:49.731Z,21.76
2019-05-25T09:56:54.631Z,21.60
2019-05-25T10:00:59.538Z,21.45
2019-05-25T10:05:06.393Z,21.41
2019-05-25T10:09:11.285Z,21.57
2019-05-25T10:13:16.186Z,21.50
2019-05-25T10:17:21.100Z,21.45
2019-05-25T10:21:25.989Z,21.64
2019-05-25T10:25:30.887Z,22.00
2019-05-25T10:29:37.593Z,22.44
2019-05-25T10:33:42.430Z,22.62
2019-05-25T10:37:47.322Z,22.82
2019-05-25T10:41:52.222Z,22.79
2019-05-25T10:45:57.119Z,22.55
2019-05-25T10:50:02.097Z,22.62
2019-05-25T10:54:06.989Z,22.84
2019-05-25T10:58:11.897Z,23.03
2019-05-25T11:02:16.788Z,23.05
2019-05-25T11:06:21.689Z,23.23
2019-05-25T11:10:26.592Z,23.19
2019-05-25T11:14:31.504Z,23.20
2019-05-25T11:18:36.405Z,22.77
2019-05-25T11:22:41.306Z,22.74
2019-05-25T11:26:46.197Z,22.80
2019-05-25T11:30:51.103Z,22.73
2019-05-25T11:34:56.006Z,22.69
2019-05-25T11:39:00.909Z,22.65
2019-05-25T11:43:05.967Z,22.49
2019-05-25T11:47:11.938Z,22.39
2019-05-25T11:51:16.847Z,22.42
2019-05-25T11:55:21.815Z,22.28
2019-05-25T11:59:26.712Z,22.27
2019-05-25T12:03:31.604Z,22.34
2019-05-25T12:07:36.576Z,22.43
2019-05-25T12:11:41.470Z,22.30
2019-05-25T12:15:46.361Z,22.37
2019-05-25T12:19:51.262Z,22.18
2019-05-25T12:23:56.169Z,22.05
2019-05-25T12:28:01.065Z,22.07
2019-05-25T12:32:06.024Z,21.98
2019-05-25T12:36:12.066Z,21.53
2019-05-25T12:40:17.038Z,21.44
2019-05-25T12:44:21.921Z,21.50
2019-05-25T12:48:26.838Z,21.58
2019-05-25T12:52:31.734Z,21.61
2019-05-25T12:56:36.722Z,21.53
2019-05-25T13:00:55.161Z,21.63
2019-05-25T13:04:48.182Z,21.56
2019-05-25T13:08:53.840Z,21.64
2019-05-25T13:13:01.916Z,21.79
2019-05-25T13:17:05.400Z,21.96
2019-05-25T13:21:10.295Z,22.20
2019-05-25T13:25:15.435Z,22.18
2019-05-25T13:29:20.337Z,22.12
2019-05-25T13:33:25.234Z,22.10
2019-05-25T13:37:30.128Z,22.08
2019-05-25T13:41:35.101Z,21.98
2019-05-25T13:45:39.989Z,22.07
2019-05-25T13:49:44.895Z,22.04
2019-05-25T13:53:49.794Z,21.95
2019-05-25T13:57:54.694Z,22.08
2019-05-25T14:01:59.601Z,22.18
2019-05-25T14:06:04.557Z,22.33
2019-05-25T14:10:09.530Z,22.53
2019-05-25T14:14:14.468Z,22.55
2019-05-25T14:18:19.362Z,22.54
2019-05-25T14:22:24.254Z,22.48
2019-05-25T14:26:29.155Z,22.39
2019-05-25T14:30:34.052Z,22.51
2019-05-25T14:34:38.954Z,22.65
2019-05-25T14:38:43.860Z,22.71
2019-05-25T14:42:48.754Z,22.78
2019-05-25T14:46:53.652Z,22.93
2019-05-25T14:50:58.555Z,23.03
2019-05-25T14:55:05.333Z,22.99
2019-05-25T14:59:10.231Z,23.05
2019-05-25T15:03:15.123Z,23.04
2019-05-25T15:07:20.022Z,22.94
2019-05-25T15:11:24.926Z,23.07
2019-05-25T15:15:29.900Z,23.05
2019-05-25T15:19:34.813Z,22.98
2019-05-25T15:23:39.711Z,22.98
2019-05-25T15:27:44.624Z,22.95
2019-05-25T15:31:49.518Z,22.91
2019-05-25T15:35:54.431Z,23.04
2019-05-25T15:39:59.340Z,23.12
2019-05-25T15:44:04.497Z,23.18
2019-05-25T15:48:09.398Z,23.13
2019-05-25T15:52:14.302Z,22.96
2019-05-25T15:56:19.203Z,22.85
2019-05-25T16:00:30.132Z,22.89
2019-05-25T16:04:35.727Z,22.84
2019-05-25T16:08:40.809Z,22.80
2019-05-25T16:12:45.714Z,22.77
2019-05-25T16:16:50.619Z,22.79
2019-05-25T16:20:55.520Z,22.90
2019-05-25T16:25:00.412Z,22.92
2019-05-25T16:29:05.330Z,22.87
2019-05-25T16:33:13.098Z,22.78
2019-05-25T16:37:17.117Z,22.87
2019-05-25T16:41:22.114Z,22.89
2019-05-25T16:45:27.006Z,22.85
2019-05-25T16:49:31.917Z,23.00
2019-05-25T16:53:36.826Z,23.09
2019-05-25T16:57:41.723Z,23.22
2019-05-25T17:01:48.494Z,23.29
2019-05-25T17:05:53.220Z,23.15
2019-05-25T17:09:58.133Z,22.83
2019-05-25T17:14:04.086Z,22.75
2019-05-25T17:18:09.059Z,22.61
2019-05-25T17:22:13.968Z,22.55
2019-05-25T17:26:18.866Z,22.32
2019-05-25T17:30:44.482Z,22.03
2019-05-25T17:34:49.383Z,21.89
2019-05-25T17:38:54.298Z,21.61
2019-05-25T17:42:59.194Z,21.01
2019-05-25T17:47:04.093Z,20.78
2019-05-25T17:51:08.993Z,20.45
2019-05-25T17:55:14.502Z,20.22
2019-05-25T17:59:19.408Z,20.01
2019-05-25T18:03:24.320Z,19.65
2019-05-25T18:07:29.202Z,19.43
2019-05-25T18:11:34.109Z,19.34
2019-05-25T18:15:39.013Z,19.32
2019-05-25T18:19:43.920Z,19.29
2019-05-25T18:23:48.819Z,19.09
2019-05-25T18:27:53.716Z,18.99
2019-05-25T18:31:58.613Z,18.94
2019-05-25T18:36:03.517Z,18.84
2019-05-25T18:40:09.666Z,18.89
2019-05-25T18:44:14.559Z,18.82
2019-05-25T18:48:19.463Z,18.71
2019-05-25T18:52:24.354Z,18.63
2019-05-25T18:56:29.255Z,18.43
2019-05-25T19:00:34.160Z,18.20
2019-05-25T19:04:46.137Z,17.92
2019-05-25T19:08:45.690Z,17.71
2019-05-25T19:12:50.573Z,17.44
2019-05-25T19:16:55.473Z,17.21
2019-05-25T19:21:00.369Z,17.04
2019-05-25T19:25:08.456Z,16.84
2019-05-25T19:29:13.366Z,16.76
2019-05-25T19:33:18.238Z,16.74
2019-05-25T19:37:23.139Z,16.75
2019-05-25T19:41:28.039Z,16.84
2019-05-25T19:45:34.009Z,16.86
2019-05-25T19:49:38.899Z,16.92
2019-05-25T19:53:43.808Z,16.75
2019-05-25T19:57:48.712Z,16.68
2019-05-25T20:01:53.604Z,16.66
2019-05-25T20:05:58.499Z,16.76
2019-05-25T20:10:04.866Z,16.90
2019-05-25T20:14:09.765Z,17.04
2019-05-25T20:18:15.628Z,17.10
2019-05-25T20:22:21.006Z,17.10
2019-05-25T20:26:25.896Z,17.03
2019-05-25T20:30:30.859Z,16.92
2019-05-25T20:34:35.684Z,16.87
2019-05-25T20:38:40.584Z,16.82
2019-05-25T20:42:45.482Z,16.63
2019-05-25T20:46:50.378Z,16.50
2019-05-25T20:50:55.262Z,16.35
2019-05-25T20:55:00.161Z,16.23
2019-05-25T20:59:05.055Z,16.03
2019-05-25T21:03:09.955Z,15.82
2019-05-25T21:07:14.860Z,15.82
2019-05-25T21:11:19.739Z,15.79
2019-05-25T21:15:24.641Z,15.80
2019-05-25T21:19:29.539Z,15.72
2019-05-25T21:23:34.435Z,15.68
2019-05-25T21:27:39.329Z,15.66
2019-05-25T21:31:44.215Z,15.47
2019-05-25T21:36:06.429Z,15.36
2019-05-25T21:39:55.706Z,15.25
2019-05-25T21:44:00.613Z,15.11
2019-05-25T21:48:05.869Z,15.06
2019-05-25T21:52:10.751Z,15.00
2019-05-25T21:56:15.642Z,14.87
2019-05-25T22:00:22.817Z,14.71
2019-05-25T22:04:29.313Z,14.58
2019-05-25T22:08:34.209Z,14.43
2019-05-25T22:12:40.374Z,14.39
2019-05-25T22:16:46.543Z,14.35
2019-05-25T22:20:51.447Z,14.18
2019-05-25T22:24:56.340Z,13.92
2019-05-25T22:29:01.248Z,13.62
2019-05-25T22:33:06.143Z,13.62
2019-05-25T22:37:11.034Z,13.62
2019-05-25T22:41:19.689Z,13.41
2019-05-25T22:45:22.536Z,13.13
2019-05-25T22:49:27.437Z,12.91
2019-05-25T22:53:32.336Z,12.94
2019-05-25T22:57:38.286Z,12.92
2019-05-25T23:01:43.180Z,12.93
2019-05-25T23:05:48.070Z,13.05
2019-05-25T23:09:52.984Z,13.09
2019-05-25T23:13:57.870Z,13.08
2019-05-25T23:18:02.761Z,13.09
2019-05-25T23:22:07.657Z,13.03
2019-05-25T23:26:12.553Z,12.79
2019-05-25T23:30:18.787Z,12.71
2019-05-25T23:34:23.741Z,12.60
2019-05-25T23:38:28.708Z,12.61
2019-05-25T23:42:33.609Z,12.59
2019-05-25T23:46:38.504Z,12.61
2019-05-25T23:50:43.410Z,12.66
2019-05-25T23:54:48.308Z,12.66
2019-05-25T23:58:53.202Z,12.62
